sensor_id;sensor_type;location;lat;lon;timestamp;temperature;humidity
15983;DHT22;14442;50.196;8.096;2023-02-04T00:01:41;24.10;38.90
15983;DHT22;14442;50.196;8.096;2023-02-04T00:04:08;24.10;38.80
15983;DHT22;14442;50.196;8.096;2023-02-04T00:06:34;24.10;38.70
15983;DHT22;14442;50.196;8.096;2023-02-04T00:09:01;24.10;38.70
15983;DHT22;14442;50.196;8.096;2023-02-04T00:11:30;24.10;38.70
15983;DHT22;14442;50.196;8.096;2023-02-04T00:13:57;24.10;38.70
15983;DHT22;14442;50.196;8.096;2023-02-04T00:16:24;24.20;38.70
15983;DHT22;14442;50.196;8.096;2023-02-04T00:18:52;24.20;38.70
15983;DHT22;14442;50.196;8.096;2023-02-04T00:21:18;24.10;38.60
15983;DHT22;14442;50.196;8.096;2023-02-04T00:23:45;24.20;38.60
15983;DHT22;14442;50.196;8.096;2023-02-04T00:26:12;24.20;38.60
15983;DHT22;14442;50.196;8.096;2023-02-04T00:28:38;24.20;38.60
15983;DHT22;14442;50.196;8.096;2023-02-04T00:31:05;24.30;38.70
15983;DHT22;14442;50.196;8.096;2023-02-04T00:33:32;24.20;38.60
15983;DHT22;14442;50.196;8.096;2023-02-04T00:36:00;24.20;38.60
15983;DHT22;14442;50.196;8.096;2023-02-04T00:38:26;24.30;38.60
15983;DHT22;14442;50.196;8.096;2023-02-04T00:40:53;24.30;38.60
15983;DHT22;14442;50.196;8.096;2023-02-04T00:43:20;24.30;38.60
15983;DHT22;14442;50.196;8.096;2023-02-04T00:45:46;24.30;38.60
15983;DHT22;14442;50.196;8.096;2023-02-04T00:48:13;24.30;38.70
15983;DHT22;14442;50.196;8.096;2023-02-04T00:50:40;24.20;38.60
15983;DHT22;14442;50.196;8.096;2023-02-04T00:53:08;24.20;38.60
15983;DHT22;14442;50.196;8.096;2023-02-04T00:55:34;24.30;38.60
15983;DHT22;14442;50.196;8.096;2023-02-04T00:58:01;24.30;38.60
15983;DHT22;14442;50.196;8.096;2023-02-04T01:00:28;24.30;38.60
15983;DHT22;14442;50.196;8.096;2023-02-04T01:02:54;24.30;38.60
15983;DHT22;14442;50.196;8.096;2023-02-04T01:05:21;24.30;38.50
15983;DHT22;14442;50.196;8.096;2023-02-04T01:07:47;24.30;38.60
15983;DHT22;14442;50.196;8.096;2023-02-04T01:10:16;24.30;38.60
15983;DHT22;14442;50.196;8.096;2023-02-04T01:12:42;24.30;38.60
15983;DHT22;14442;50.196;8.096;2023-02-04T01:15:09;24.30;38.60
15983;DHT22;14442;50.196;8.096;2023-02-04T01:17:36;24.30;38.70
15983;DHT22;14442;50.196;8.096;2023-02-04T01:20:03;24.30;38.70
15983;DHT22;14442;50.196;8.096;2023-02-04T01:22:30;24.30;38.60
15983;DHT22;14442;50.196;8.096;2023-02-04T01:24:57;24.30;38.80
15983;DHT22;14442;50.196;8.096;2023-02-04T01:27:24;24.20;38.70
15983;DHT22;14442;50.196;8.096;2023-02-04T01:29:51;24.30;38.80
15983;DHT22;14442;50.196;8.096;2023-02-04T01:32:18;24.30;38.80
15983;DHT22;14442;50.196;8.096;2023-02-04T01:34:44;24.20;38.60
15983;DHT22;14442;50.196;8.096;2023-02-04T01:37:11;24.20;38.60
15983;DHT22;14442;50.196;8.096;2023-02-04T01:39:38;24.20;38.70
15983;DHT22;14442;50.196;8.096;2023-02-04T01:42:04;24.20;38.70
15983;DHT22;14442;50.196;8.096;2023-02-04T01:44:33;24.20;38.90
15983;DHT22;14442;50.196;8.096;2023-02-04T01:46:59;24.20;38.80
15983;DHT22;14442;50.196;8.096;2023-02-04T01:49:26;24.20;38.80
15983;DHT22;14442;50.196;8.096;2023-02-04T01:51:53;24.10;38.90
15983;DHT22;14442;50.196;8.096;2023-02-04T01:54:20;24.20;38.90
15983;DHT22;14442;50.196;8.096;2023-02-04T01:56:48;24.20;39.00
15983;DHT22;14442;50.196;8.096;2023-02-04T01:59:17;24.10;38.90
15983;DHT22;14442;50.196;8.096;2023-02-04T02:01:46;24.10;38.90
15983;DHT22;14442;50.196;8.096;2023-02-04T02:04:15;24.10;38.90
15983;DHT22;14442;50.196;8.096;2023-02-04T02:06:46;24.10;38.90
15983;DHT22;14442;50.196;8.096;2023-02-04T02:09:15;24.10;38.90
15983;DHT22;14442;50.196;8.096;2023-02-04T02:11:42;24.10;39.00
15983;DHT22;14442;50.196;8.096;2023-02-04T02:14:09;24.10;39.10
15983;DHT22;14442;50.196;8.096;2023-02-04T02:16:36;24.10;39.10
15983;DHT22;14442;50.196;8.096;2023-02-04T02:19:06;24.10;39.00
15983;DHT22;14442;50.196;8.096;2023-02-04T02:21:39;24.10;39.10
15983;DHT22;14442;50.196;8.096;2023-02-04T02:24:24;24.10;39.00
15983;DHT22;14442;50.196;8.096;2023-02-04T02:26:51;24.10;38.90
15983;DHT22;14442;50.196;8.096;2023-02-04T02:29:18;24.00;38.90
15983;DHT22;14442;50.196;8.096;2023-02-04T02:31:45;24.00;39.10
15983;DHT22;14442;50.196;8.096;2023-02-04T02:34:12;23.90;39.10
15983;DHT22;14442;50.196;8.096;2023-02-04T02:36:39;23.90;39.10
15983;DHT22;14442;50.196;8.096;2023-02-04T02:39:06;23.90;39.10
15983;DHT22;14442;50.196;8.096;2023-02-04T02:41:34;23.90;39.10
15983;DHT22;14442;50.196;8.096;2023-02-04T02:44:01;23.90;39.00
15983;DHT22;14442;50.196;8.096;2023-02-04T02:46:28;23.90;39.00
15983;DHT22;14442;50.196;8.096;2023-02-04T02:48:54;23.90;39.10
15983;DHT22;14442;50.196;8.096;2023-02-04T02:51:21;23.90;39.10
15983;DHT22;14442;50.196;8.096;2023-02-04T02:53:48;23.90;39.10
15983;DHT22;14442;50.196;8.096;2023-02-04T02:56:16;23.90;39.80
15983;DHT22;14442;50.196;8.096;2023-02-04T02:58:45;23.90;39.10
15983;DHT22;14442;50.196;8.096;2023-02-04T03:01:12;23.90;39.10
15983;DHT22;14442;50.196;8.096;2023-02-04T03:03:42;23.90;39.10
15983;DHT22;14442;50.196;8.096;2023-02-04T03:06:12;23.90;39.10
15983;DHT22;14442;50.196;8.096;2023-02-04T03:08:40;23.90;39.10
15983;DHT22;14442;50.196;8.096;2023-02-04T03:11:08;23.90;39.10
15983;DHT22;14442;50.196;8.096;2023-02-04T03:13:35;23.90;39.10
15983;DHT22;14442;50.196;8.096;2023-02-04T03:16:05;23.80;39.10
15983;DHT22;14442;50.196;8.096;2023-02-04T03:18:33;23.90;39.20
15983;DHT22;14442;50.196;8.096;2023-02-04T03:21:01;23.80;39.10
15983;DHT22;14442;50.196;8.096;2023-02-04T03:23:29;23.80;39.20
15983;DHT22;14442;50.196;8.096;2023-02-04T03:25:57;23.80;39.00
15983;DHT22;14442;50.196;8.096;2023-02-04T03:28:24;23.80;39.10
15983;DHT22;14442;50.196;8.096;2023-02-04T03:30:51;23.70;39.10
15983;DHT22;14442;50.196;8.096;2023-02-04T03:33:21;23.70;39.00
15983;DHT22;14442;50.196;8.096;2023-02-04T03:35:48;23.80;39.00
15983;DHT22;14442;50.196;8.096;2023-02-04T03:38:16;23.70;38.90
15983;DHT22;14442;50.196;8.096;2023-02-04T03:40:43;23.70;39.00
15983;DHT22;14442;50.196;8.096;2023-02-04T03:43:09;23.70;39.00
15983;DHT22;14442;50.196;8.096;2023-02-04T03:45:36;23.70;39.00
15983;DHT22;14442;50.196;8.096;2023-02-04T03:48:03;23.60;39.00
15983;DHT22;14442;50.196;8.096;2023-02-04T03:50:31;23.60;38.90
15983;DHT22;14442;50.196;8.096;2023-02-04T03:52:57;23.70;39.00
15983;DHT22;14442;50.196;8.096;2023-02-04T03:55:24;23.70;39.00
15983;DHT22;14442;50.196;8.096;2023-02-04T03:57:51;23.60;39.00
15983;DHT22;14442;50.196;8.096;2023-02-04T04:00:18;23.60;38.90
15983;DHT22;14442;50.196;8.096;2023-02-04T04:02:45;23.60;39.00
15983;DHT22;14442;50.196;8.096;2023-02-04T04:05:12;23.60;39.00
15983;DHT22;14442;50.196;8.096;2023-02-04T04:07:40;23.60;39.00
15983;DHT22;14442;50.196;8.096;2023-02-04T04:10:07;23.60;39.00
15983;DHT22;14442;50.196;8.096;2023-02-04T04:12:33;23.50;38.90
15983;DHT22;14442;50.196;8.096;2023-02-04T04:15:00;23.50;39.00
15983;DHT22;14442;50.196;8.096;2023-02-04T04:17:27;23.50;39.10
15983;DHT22;14442;50.196;8.096;2023-02-04T04:19:54;23.50;39.30
15983;DHT22;14442;50.196;8.096;2023-02-04T04:22:20;23.40;39.20
15983;DHT22;14442;50.196;8.096;2023-02-04T04:24:48;23.40;39.20
15983;DHT22;14442;50.196;8.096;2023-02-04T04:27:15;23.40;39.20
15983;DHT22;14442;50.196;8.096;2023-02-04T04:29:42;23.40;39.30
15983;DHT22;14442;50.196;8.096;2023-02-04T04:32:08;23.40;39.30
15983;DHT22;14442;50.196;8.096;2023-02-04T04:34:35;23.40;39.50
15983;DHT22;14442;50.196;8.096;2023-02-04T04:37:02;23.30;39.20
15983;DHT22;14442;50.196;8.096;2023-02-04T04:39:28;23.30;39.30
15983;DHT22;14442;50.196;8.096;2023-02-04T04:41:56;23.30;39.30
15983;DHT22;14442;50.196;8.096;2023-02-04T04:44:23;23.30;40.10
15983;DHT22;14442;50.196;8.096;2023-02-04T04:46:50;23.30;39.40
15983;DHT22;14442;50.196;8.096;2023-02-04T04:49:16;23.30;39.50
15983;DHT22;14442;50.196;8.096;2023-02-04T04:51:43;23.30;39.50
15983;DHT22;14442;50.196;8.096;2023-02-04T04:54:09;23.30;39.50
15983;DHT22;14442;50.196;8.096;2023-02-04T04:56:36;23.30;39.50
15983;DHT22;14442;50.196;8.096;2023-02-04T04:59:04;23.20;39.50
15983;DHT22;14442;50.196;8.096;2023-02-04T05:01:31;23.20;39.50
15983;DHT22;14442;50.196;8.096;2023-02-04T05:03:58;23.20;39.50
15983;DHT22;14442;50.196;8.096;2023-02-04T05:06:24;23.20;39.50
15983;DHT22;14442;50.196;8.096;2023-02-04T05:08:51;23.20;39.50
15983;DHT22;14442;50.196;8.096;2023-02-04T05:11:18;23.20;39.50
15983;DHT22;14442;50.196;8.096;2023-02-04T05:13:45;23.20;39.50
15983;DHT22;14442;50.196;8.096;2023-02-04T05:16:13;23.20;39.60
15983;DHT22;14442;50.196;8.096;2023-02-04T05:18:40;23.20;39.50
15983;DHT22;14442;50.196;8.096;2023-02-04T05:21:07;23.20;39.50
15983;DHT22;14442;50.196;8.096;2023-02-04T05:23:34;23.20;39.50
15983;DHT22;14442;50.196;8.096;2023-02-04T05:26:01;23.20;39.60
15983;DHT22;14442;50.196;8.096;2023-02-04T05:28:28;23.20;39.60
15983;DHT22;14442;50.196;8.096;2023-02-04T05:30:54;23.20;39.60
15983;DHT22;14442;50.196;8.096;2023-02-04T05:33:22;23.20;39.60
15983;DHT22;14442;50.196;8.096;2023-02-04T05:35:49;23.10;39.40
15983;DHT22;14442;50.196;8.096;2023-02-04T05:38:16;23.10;39.40
15983;DHT22;14442;50.196;8.096;2023-02-04T05:40:42;23.10;40.20
15983;DHT22;14442;50.196;8.096;2023-02-04T05:43:09;23.20;39.60
15983;DHT22;14442;50.196;8.096;2023-02-04T05:45:36;23.10;39.50
15983;DHT22;14442;50.196;8.096;2023-02-04T05:48:03;23.10;39.50
15983;DHT22;14442;50.196;8.096;2023-02-04T05:50:31;23.10;39.50
15983;DHT22;14442;50.196;8.096;2023-02-04T05:52:57;23.20;39.60
15983;DHT22;14442;50.196;8.096;2023-02-04T05:55:24;23.10;39.50
15983;DHT22;14442;50.196;8.096;2023-02-04T05:57:50;23.20;39.60
15983;DHT22;14442;50.196;8.096;2023-02-04T06:00:18;23.10;39.50
15983;DHT22;14442;50.196;8.096;2023-02-04T06:02:44;23.20;39.60
15983;DHT22;14442;50.196;8.096;2023-02-04T06:05:11;23.20;39.60
15983;DHT22;14442;50.196;8.096;2023-02-04T06:07:39;23.10;39.40
15983;DHT22;14442;50.196;8.096;2023-02-04T06:10:06;23.20;39.60
15983;DHT22;14442;50.196;8.096;2023-02-04T06:12:32;23.20;39.50
15983;DHT22;14442;50.196;8.096;2023-02-04T06:14:59;23.10;39.40
15983;DHT22;14442;50.196;8.096;2023-02-04T06:17:26;23.20;39.50
15983;DHT22;14442;50.196;8.096;2023-02-04T06:19:52;23.10;39.50
15983;DHT22;14442;50.196;8.096;2023-02-04T06:22:20;23.10;39.40
15983;DHT22;14442;50.196;8.096;2023-02-04T06:24:50;23.10;39.40
15983;DHT22;14442;50.196;8.096;2023-02-04T06:27:16;23.10;39.40
15983;DHT22;14442;50.196;8.096;2023-02-04T06:29:47;23.10;39.50
15983;DHT22;14442;50.196;8.096;2023-02-04T06:32:14;23.10;39.40
15983;DHT22;14442;50.196;8.096;2023-02-04T06:34:41;23.20;39.60
15983;DHT22;14442;50.196;8.096;2023-02-04T06:37:07;23.10;39.50
15983;DHT22;14442;50.196;8.096;2023-02-04T06:39:34;23.10;39.50
15983;DHT22;14442;50.196;8.096;2023-02-04T06:42:02;23.10;39.50
15983;DHT22;14442;50.196;8.096;2023-02-04T06:44:28;23.10;39.50
15983;DHT22;14442;50.196;8.096;2023-02-04T06:46:55;23.10;39.50
15983;DHT22;14442;50.196;8.096;2023-02-04T06:49:22;23.10;39.50
15983;DHT22;14442;50.196;8.096;2023-02-04T06:51:49;23.10;39.50
15983;DHT22;14442;50.196;8.096;2023-02-04T06:54:16;23.10;39.50
15983;DHT22;14442;50.196;8.096;2023-02-04T06:56:43;23.10;39.50
15983;DHT22;14442;50.196;8.096;2023-02-04T06:59:11;23.10;39.50
15983;DHT22;14442;50.196;8.096;2023-02-04T07:01:37;23.10;39.50
15983;DHT22;14442;50.196;8.096;2023-02-04T07:04:04;23.00;39.50
15983;DHT22;14442;50.196;8.096;2023-02-04T07:06:31;23.10;39.50
15983;DHT22;14442;50.196;8.096;2023-02-04T07:08:57;23.10;39.60
15983;DHT22;14442;50.196;8.096;2023-02-04T07:11:24;23.00;39.40
15983;DHT22;14442;50.196;8.096;2023-02-04T07:13:50;23.00;39.50
15983;DHT22;14442;50.196;8.096;2023-02-04T07:16:18;23.00;39.50
15983;DHT22;14442;50.196;8.096;2023-02-04T07:18:45;23.00;39.40
15983;DHT22;14442;50.196;8.096;2023-02-04T07:21:12;23.00;39.50
15983;DHT22;14442;50.196;8.096;2023-02-04T07:23:38;23.00;39.50
15983;DHT22;14442;50.196;8.096;2023-02-04T07:26:05;23.00;39.60
15983;DHT22;14442;50.196;8.096;2023-02-04T07:28:32;23.00;39.60
15983;DHT22;14442;50.196;8.096;2023-02-04T07:31:01;23.00;39.50
15983;DHT22;14442;50.196;8.096;2023-02-04T07:33:29;23.00;39.50
15983;DHT22;14442;50.196;8.096;2023-02-04T07:35:55;23.00;39.50
15983;DHT22;14442;50.196;8.096;2023-02-04T07:38:22;23.00;39.50
15983;DHT22;14442;50.196;8.096;2023-02-04T07:40:49;23.00;39.60
15983;DHT22;14442;50.196;8.096;2023-02-04T07:43:15;23.00;39.50
15983;DHT22;14442;50.196;8.096;2023-02-04T07:45:42;23.00;39.50
15983;DHT22;14442;50.196;8.096;2023-02-04T07:48:09;23.00;39.40
15983;DHT22;14442;50.196;8.096;2023-02-04T07:50:37;23.00;39.50
15983;DHT22;14442;50.196;8.096;2023-02-04T07:53:04;23.00;39.50
15983;DHT22;14442;50.196;8.096;2023-02-04T07:55:30;22.90;39.40
15983;DHT22;14442;50.196;8.096;2023-02-04T07:57:57;23.00;39.50
15983;DHT22;14442;50.196;8.096;2023-02-04T08:00:24;22.90;39.40
15983;DHT22;14442;50.196;8.096;2023-02-04T08:02:50;23.00;39.60
15983;DHT22;14442;50.196;8.096;2023-02-04T08:05:17;22.90;39.50
15983;DHT22;14442;50.196;8.096;2023-02-04T08:07:45;22.90;39.50
15983;DHT22;14442;50.196;8.096;2023-02-04T08:10:12;22.90;39.40
15983;DHT22;14442;50.196;8.096;2023-02-04T08:12:38;22.90;39.40
15983;DHT22;14442;50.196;8.096;2023-02-04T08:15:06;22.90;39.50
15983;DHT22;14442;50.196;8.096;2023-02-04T08:17:33;22.90;39.40
15983;DHT22;14442;50.196;8.096;2023-02-04T08:20:00;22.90;39.50
15983;DHT22;14442;50.196;8.096;2023-02-04T08:22:26;22.90;39.40
15983;DHT22;14442;50.196;8.096;2023-02-04T08:24:54;22.90;39.40
15983;DHT22;14442;50.196;8.096;2023-02-04T08:27:21;22.90;39.40
15983;DHT22;14442;50.196;8.096;2023-02-04T08:29:48;22.90;39.50
15983;DHT22;14442;50.196;8.096;2023-02-04T08:32:14;22.90;39.50
15983;DHT22;14442;50.196;8.096;2023-02-04T08:34:41;22.80;39.40
15983;DHT22;14442;50.196;8.096;2023-02-04T08:37:08;22.90;39.50
15983;DHT22;14442;50.196;8.096;2023-02-04T08:39:35;22.80;39.40
15983;DHT22;14442;50.196;8.096;2023-02-04T08:42:04;22.80;39.40
15983;DHT22;14442;50.196;8.096;2023-02-04T08:44:31;22.80;39.40
15983;DHT22;14442;50.196;8.096;2023-02-04T08:46:58;22.80;39.40
15983;DHT22;14442;50.196;8.096;2023-02-04T08:49:24;22.80;39.40
15983;DHT22;14442;50.196;8.096;2023-02-04T08:51:51;22.80;39.40
15983;DHT22;14442;50.196;8.096;2023-02-04T08:54:18;22.80;39.50
15983;DHT22;14442;50.196;8.096;2023-02-04T08:56:44;22.80;39.40
15983;DHT22;14442;50.196;8.096;2023-02-04T08:59:12;22.80;39.60
15983;DHT22;14442;50.196;8.096;2023-02-04T09:01:39;22.80;39.40
15983;DHT22;14442;50.196;8.096;2023-02-04T09:04:05;22.80;39.50
15983;DHT22;14442;50.196;8.096;2023-02-04T09:06:32;22.80;39.50
15983;DHT22;14442;50.196;8.096;2023-02-04T09:08:59;22.80;39.40
15983;DHT22;14442;50.196;8.096;2023-02-04T09:11:26;22.90;39.30
15983;DHT22;14442;50.196;8.096;2023-02-04T09:13:53;22.90;39.20
15983;DHT22;14442;50.196;8.096;2023-02-04T09:16:23;23.00;39.20
15983;DHT22;14442;50.196;8.096;2023-02-04T09:18:49;23.10;39.20
15983;DHT22;14442;50.196;8.096;2023-02-04T09:21:16;23.00;39.20
15983;DHT22;14442;50.196;8.096;2023-02-04T09:23:43;23.10;39.30
15983;DHT22;14442;50.196;8.096;2023-02-04T09:26:11;23.00;39.20
15983;DHT22;14442;50.196;8.096;2023-02-04T09:28:37;23.00;39.30
15983;DHT22;14442;50.196;8.096;2023-02-04T09:31:04;23.00;39.30
15983;DHT22;14442;50.196;8.096;2023-02-04T09:33:33;23.00;39.40
15983;DHT22;14442;50.196;8.096;2023-02-04T09:36:01;23.20;39.60
15983;DHT22;14442;50.196;8.096;2023-02-04T09:38:27;23.10;39.70
15983;DHT22;14442;50.196;8.096;2023-02-04T09:40:56;23.20;40.20
15983;DHT22;14442;50.196;8.096;2023-02-04T09:43:25;23.20;40.80
15983;DHT22;14442;50.196;8.096;2023-02-04T09:45:54;23.30;41.10
15983;DHT22;14442;50.196;8.096;2023-02-04T09:48:21;23.30;41.10
15983;DHT22;14442;50.196;8.096;2023-02-04T09:51:01;23.30;41.10
15983;DHT22;14442;50.196;8.096;2023-02-04T09:53:29;23.30;41.10
15983;DHT22;14442;50.196;8.096;2023-02-04T09:55:56;23.30;41.00
15983;DHT22;14442;50.196;8.096;2023-02-04T09:58:27;23.30;41.10
15983;DHT22;14442;50.196;8.096;2023-02-04T10:00:59;23.30;41.00
15983;DHT22;14442;50.196;8.096;2023-02-04T10:03:27;23.40;41.10
15983;DHT22;14442;50.196;8.096;2023-02-04T10:05:55;23.40;41.00
15983;DHT22;14442;50.196;8.096;2023-02-04T10:08:27;23.40;41.00
15983;DHT22;14442;50.196;8.096;2023-02-04T10:10:55;23.40;40.90
15983;DHT22;14442;50.196;8.096;2023-02-04T10:13:28;23.40;41.00
15983;DHT22;14442;50.196;8.096;2023-02-04T10:15:56;23.40;41.00
15983;DHT22;14442;50.196;8.096;2023-02-04T10:18:25;23.50;41.00
15983;DHT22;14442;50.196;8.096;2023-02-04T10:20:57;23.50;40.90
15983;DHT22;14442;50.196;8.096;2023-02-04T10:23:26;23.50;40.90
15983;DHT22;14442;50.196;8.096;2023-02-04T10:25:52;23.50;40.90
15983;DHT22;14442;50.196;8.096;2023-02-04T10:28:19;23.50;41.00
15983;DHT22;14442;50.196;8.096;2023-02-04T10:30:46;23.50;41.00
15983;DHT22;14442;50.196;8.096;2023-02-04T10:33:14;23.50;40.90
15983;DHT22;14442;50.196;8.096;2023-02-04T10:35:46;23.60;40.90
15983;DHT22;14442;50.196;8.096;2023-02-04T10:38:15;23.60;40.90
15983;DHT22;14442;50.196;8.096;2023-02-04T10:40:41;23.60;40.90
15983;DHT22;14442;50.196;8.096;2023-02-04T10:43:08;23.60;40.90
15983;DHT22;14442;50.196;8.096;2023-02-04T10:45:36;23.60;40.80
15983;DHT22;14442;50.196;8.096;2023-02-04T10:48:03;23.60;40.90
15983;DHT22;14442;50.196;8.096;2023-02-04T10:50:30;23.60;40.90
15983;DHT22;14442;50.196;8.096;2023-02-04T10:52:58;23.70;40.80
15983;DHT22;14442;50.196;8.096;2023-02-04T10:55:40;23.70;40.90
15983;DHT22;14442;50.196;8.096;2023-02-04T10:58:09;23.70;41.70
15983;DHT22;14442;50.196;8.096;2023-02-04T11:00:36;23.70;42.90
15983;DHT22;14442;50.196;8.096;2023-02-04T11:03:06;23.80;42.90
15983;DHT22;14442;50.196;8.096;2023-02-04T11:05:35;23.80;43.90
15983;DHT22;14442;50.196;8.096;2023-02-04T11:08:02;23.80;43.40
15983;DHT22;14442;50.196;8.096;2023-02-04T11:10:45;23.90;43.20
15983;DHT22;14442;50.196;8.096;2023-02-04T11:13:21;23.80;42.60
15983;DHT22;14442;50.196;8.096;2023-02-04T11:15:53;23.90;42.10
15983;DHT22;14442;50.196;8.096;2023-02-04T11:18:26;23.80;43.60
15983;DHT22;14442;50.196;8.096;2023-02-04T11:20:55;23.90;43.60
15983;DHT22;14442;50.196;8.096;2023-02-04T11:23:34;23.90;43.30
15983;DHT22;14442;50.196;8.096;2023-02-04T11:26:05;23.90;43.70
15983;DHT22;14442;50.196;8.096;2023-02-04T11:28:46;23.90;43.90
15983;DHT22;14442;50.196;8.096;2023-02-04T11:31:24;23.90;44.00
15983;DHT22;14442;50.196;8.096;2023-02-04T11:34:07;23.90;44.00
15983;DHT22;14442;50.196;8.096;2023-02-04T11:36:34;23.90;43.70
15983;DHT22;14442;50.196;8.096;2023-02-04T11:39:07;23.90;44.10
15983;DHT22;14442;50.196;8.096;2023-02-04T11:41:43;23.90;43.70
15983;DHT22;14442;50.196;8.096;2023-02-04T11:44:11;24.00;42.40
15983;DHT22;14442;50.196;8.096;2023-02-04T11:46:38;23.90;43.10
15983;DHT22;14442;50.196;8.096;2023-02-04T11:49:15;24.00;43.60
15983;DHT22;14442;50.196;8.096;2023-02-04T11:51:43;24.00;43.20
15983;DHT22;14442;50.196;8.096;2023-02-04T11:54:11;24.10;42.70
15983;DHT22;14442;50.196;8.096;2023-02-04T11:56:39;24.00;41.80
15983;DHT22;14442;50.196;8.096;2023-02-04T11:59:08;23.90;42.00
15983;DHT22;14442;50.196;8.096;2023-02-04T12:01:36;24.00;42.20
15983;DHT22;14442;50.196;8.096;2023-02-04T12:04:04;24.00;42.00
15983;DHT22;14442;50.196;8.096;2023-02-04T12:06:34;24.00;41.50
15983;DHT22;14442;50.196;8.096;2023-02-04T12:09:05;23.90;41.10
15983;DHT22;14442;50.196;8.096;2023-02-04T12:11:32;23.90;41.50
15983;DHT22;14442;50.196;8.096;2023-02-04T12:14:08;23.90;41.60
15983;DHT22;14442;50.196;8.096;2023-02-04T12:16:43;23.90;42.00
15983;DHT22;14442;50.196;8.096;2023-02-04T12:19:10;23.90;42.10
15983;DHT22;14442;50.196;8.096;2023-02-04T12:21:38;24.00;42.20
15983;DHT22;14442;50.196;8.096;2023-02-04T12:24:05;23.90;42.10
15983;DHT22;14442;50.196;8.096;2023-02-04T12:26:31;23.90;42.20
15983;DHT22;14442;50.196;8.096;2023-02-04T12:28:58;24.00;42.00
15983;DHT22;14442;50.196;8.096;2023-02-04T12:31:29;24.00;42.10
15983;DHT22;14442;50.196;8.096;2023-02-04T12:33:56;24.00;42.30
15983;DHT22;14442;50.196;8.096;2023-02-04T12:36:23;23.90;42.00
15983;DHT22;14442;50.196;8.096;2023-02-04T12:38:51;23.90;42.30
15983;DHT22;14442;50.196;8.096;2023-02-04T12:41:18;24.00;42.30
15983;DHT22;14442;50.196;8.096;2023-02-04T12:43:45;24.00;42.50
15983;DHT22;14442;50.196;8.096;2023-02-04T12:46:14;24.00;42.20
15983;DHT22;14442;50.196;8.096;2023-02-04T12:48:42;23.90;42.20
15983;DHT22;14442;50.196;8.096;2023-02-04T12:51:09;23.90;42.30
15983;DHT22;14442;50.196;8.096;2023-02-04T12:53:36;24.00;42.80
15983;DHT22;14442;50.196;8.096;2023-02-04T12:56:03;24.00;43.00
15983;DHT22;14442;50.196;8.096;2023-02-04T12:58:30;23.90;42.40
15983;DHT22;14442;50.196;8.096;2023-02-04T13:00:56;23.90;43.00
15983;DHT22;14442;50.196;8.096;2023-02-04T13:03:23;23.90;43.70
15983;DHT22;14442;50.196;8.096;2023-02-04T13:05:51;23.90;42.90
15983;DHT22;14442;50.196;8.096;2023-02-04T13:08:18;23.90;43.20
15983;DHT22;14442;50.196;8.096;2023-02-04T13:10:44;23.90;42.50
15983;DHT22;14442;50.196;8.096;2023-02-04T13:13:16;23.90;42.50
15983;DHT22;14442;50.196;8.096;2023-02-04T13:15:43;23.70;41.60
15983;DHT22;14442;50.196;8.096;2023-02-04T13:18:09;23.50;41.50
15983;DHT22;14442;50.196;8.096;2023-02-04T13:20:36;23.50;41.20
15983;DHT22;14442;50.196;8.096;2023-02-04T13:23:04;23.60;40.70
15983;DHT22;14442;50.196;8.096;2023-02-04T13:25:31;23.60;40.40
15983;DHT22;14442;50.196;8.096;2023-02-04T13:27:57;23.70;40.50
15983;DHT22;14442;50.196;8.096;2023-02-04T13:30:24;23.70;40.40
15983;DHT22;14442;50.196;8.096;2023-02-04T13:32:50;23.70;40.40
15983;DHT22;14442;50.196;8.096;2023-02-04T13:35:17;23.70;40.30
15983;DHT22;14442;50.196;8.096;2023-02-04T13:37:44;23.70;40.30
15983;DHT22;14442;50.196;8.096;2023-02-04T13:40:12;23.70;40.40
15983;DHT22;14442;50.196;8.096;2023-02-04T13:42:39;23.70;40.30
15983;DHT22;14442;50.196;8.096;2023-02-04T13:45:07;23.70;40.30
15983;DHT22;14442;50.196;8.096;2023-02-04T13:47:36;23.70;40.30
15983;DHT22;14442;50.196;8.096;2023-02-04T13:50:04;23.70;40.30
15983;DHT22;14442;50.196;8.096;2023-02-04T13:52:31;23.60;40.30
15983;DHT22;14442;50.196;8.096;2023-02-04T13:54:59;23.70;40.20
15983;DHT22;14442;50.196;8.096;2023-02-04T13:57:27;23.60;40.20
15983;DHT22;14442;50.196;8.096;2023-02-04T13:59:55;23.60;40.20
15983;DHT22;14442;50.196;8.096;2023-02-04T14:02:22;23.70;40.20
15983;DHT22;14442;50.196;8.096;2023-02-04T14:04:49;23.60;40.80
15983;DHT22;14442;50.196;8.096;2023-02-04T14:07:17;23.60;40.20
15983;DHT22;14442;50.196;8.096;2023-02-04T14:09:43;23.60;40.20
15983;DHT22;14442;50.196;8.096;2023-02-04T14:12:12;23.60;40.20
15983;DHT22;14442;50.196;8.096;2023-02-04T14:14:40;23.60;40.20
15983;DHT22;14442;50.196;8.096;2023-02-04T14:17:07;23.60;40.20
15983;DHT22;14442;50.196;8.096;2023-02-04T14:19:33;23.70;40.30
15983;DHT22;14442;50.196;8.096;2023-02-04T14:22:00;23.60;40.30
15983;DHT22;14442;50.196;8.096;2023-02-04T14:24:27;23.50;40.20
15983;DHT22;14442;50.196;8.096;2023-02-04T14:26:53;23.50;40.20
15983;DHT22;14442;50.196;8.096;2023-02-04T14:29:20;23.50;40.30
15983;DHT22;14442;50.196;8.096;2023-02-04T14:31:48;23.50;40.20
15983;DHT22;14442;50.196;8.096;2023-02-04T14:34:15;23.50;40.30
15983;DHT22;14442;50.196;8.096;2023-02-04T14:36:42;23.40;40.20
15983;DHT22;14442;50.196;8.096;2023-02-04T14:39:08;23.40;40.20
15983;DHT22;14442;50.196;8.096;2023-02-04T14:41:35;23.40;40.20
15983;DHT22;14442;50.196;8.096;2023-02-04T14:44:01;23.40;40.20
15983;DHT22;14442;50.196;8.096;2023-02-04T14:46:28;23.40;40.20
15983;DHT22;14442;50.196;8.096;2023-02-04T14:48:56;23.40;40.20
15983;DHT22;14442;50.196;8.096;2023-02-04T14:51:23;23.40;40.30
15983;DHT22;14442;50.196;8.096;2023-02-04T14:53:49;23.40;40.30
15983;DHT22;14442;50.196;8.096;2023-02-04T14:56:16;23.40;40.30
15983;DHT22;14442;50.196;8.096;2023-02-04T14:58:43;23.30;40.20
15983;DHT22;14442;50.196;8.096;2023-02-04T15:01:10;23.40;40.40
15983;DHT22;14442;50.196;8.096;2023-02-04T15:03:37;23.30;40.30
15983;DHT22;14442;50.196;8.096;2023-02-04T15:06:05;23.30;40.20
15983;DHT22;14442;50.196;8.096;2023-02-04T15:08:32;23.30;40.30
15983;DHT22;14442;50.196;8.096;2023-02-04T15:10:59;23.30;40.30
15983;DHT22;14442;50.196;8.096;2023-02-04T15:13:26;23.30;40.30
15983;DHT22;14442;50.196;8.096;2023-02-04T15:15:53;23.20;40.30
15983;DHT22;14442;50.196;8.096;2023-02-04T15:18:20;23.20;40.30
15983;DHT22;14442;50.196;8.096;2023-02-04T15:20:47;23.20;40.30
15983;DHT22;14442;50.196;8.096;2023-02-04T15:23:15;23.20;40.20
15983;DHT22;14442;50.196;8.096;2023-02-04T15:25:42;23.20;40.20
15983;DHT22;14442;50.196;8.096;2023-02-04T15:28:09;23.20;40.70
15983;DHT22;14442;50.196;8.096;2023-02-04T15:30:35;23.20;41.70
15983;DHT22;14442;50.196;8.096;2023-02-04T15:33:02;23.30;41.60